createdAt,value
2017-09-20T00:01:08.565Z,0
2017-09-20T00:02:17.143Z,0
2017-09-20T00:03:25.970Z,0
2017-09-20T00:04:34.832Z,0
2017-09-20T00:05:44.023Z,0
2017-09-20T00:06:52.564Z,0
2017-09-20T00:08:01.105Z,0
2017-09-20T00:09:09.970Z,0
2017-09-20T00:10:19.154Z,0
2017-09-20T00:11:28.342Z,0
2017-09-20T00:12:36.885Z,0
2017-09-20T00:13:45.427Z,0
2017-09-20T00:14:54.293Z,0
2017-09-20T00:16:03.160Z,0
2017-09-20T00:17:12.346Z,0
2017-09-20T00:18:21.210Z,0
2017-09-20T00:19:29.752Z,0
2017-09-20T00:20:38.292Z,0
2017-09-20T00:21:46.839Z,0
2017-09-20T00:22:56.822Z,0
2017-09-20T00:24:05.688Z,0
2017-09-20T00:25:14.229Z,0
2017-09-20T00:26:22.770Z,0
2017-09-20T00:27:31.312Z,0
2017-09-20T00:28:40.176Z,0
2017-09-20T00:29:48.712Z,0
2017-09-20T00:30:57.253Z,0
2017-09-20T00:32:06.117Z,0
2017-09-20T00:33:14.661Z,0
2017-09-20T00:34:23.199Z,0
2017-09-20T00:35:32.389Z,0
2017-09-20T00:36:40.932Z,0
2017-09-20T00:37:49.475Z,0
2017-09-20T00:38:58.338Z,0
2017-09-20T00:40:07.522Z,0
2017-09-20T00:41:16.384Z,0
2017-09-20T00:42:24.925Z,0
2017-09-20T00:43:33.786Z,0
2017-09-20T00:44:42.329Z,0
2017-09-20T00:45:50.871Z,0
2017-09-20T00:46:59.741Z,0
2017-09-20T00:48:08.287Z,0
2017-09-20T00:49:17.147Z,0
2017-09-20T00:50:26.011Z,0
2017-09-20T00:51:35.196Z,0
2017-09-20T00:52:44.837Z,0
2017-09-20T00:53:53.705Z,0
2017-09-20T00:55:02.240Z,0
2017-09-20T00:56:10.780Z,0
2017-09-20T00:57:19.320Z,0
2017-09-20T00:58:28.510Z,0
2017-09-20T00:59:37.050Z,0
2017-09-20T01:00:45.590Z,0
2017-09-20T01:01:54.127Z,0
2017-09-20T01:03:02.664Z,0
2017-09-20T01:04:11.206Z,0
2017-09-20T01:05:20.070Z,0
2017-09-20T01:06:28.611Z,0
2017-09-20T01:07:37.475Z,0
2017-09-20T01:08:46.013Z,0
2017-09-20T01:09:54.880Z,0
2017-09-20T01:11:03.744Z,0
2017-09-20T01:12:12.605Z,0
2017-09-20T01:13:21.145Z,0
2017-09-20T01:14:30.332Z,0
2017-09-20T01:15:38.875Z,0
2017-09-20T01:16:48.061Z,0
2017-09-20T01:17:56.601Z,0
2017-09-20T01:19:05.144Z,0
2017-09-20T01:20:13.685Z,0
2017-09-20T01:21:22.229Z,0
2017-09-20T01:22:30.770Z,0
2017-09-20T01:23:39.645Z,0
2017-09-20T01:24:48.509Z,0
2017-09-20T01:25:57.374Z,0
2017-09-20T01:27:05.918Z,0
2017-09-20T01:28:14.782Z,0
2017-09-20T01:29:23.328Z,0
2017-09-20T01:30:31.872Z,0
2017-09-20T01:31:40.733Z,0
2017-09-20T01:32:49.599Z,0
2017-09-20T01:33:58.468Z,0
2017-09-20T01:35:07.005Z,0
2017-09-20T01:36:15.865Z,0
2017-09-20T01:37:24.731Z,0
2017-09-20T01:38:33.269Z,0
2017-09-20T01:39:41.815Z,0
2017-09-20T01:40:50.357Z,0
2017-09-20T01:41:59.548Z,0
2017-09-20T01:43:08.091Z,0
2017-09-20T01:44:16.631Z,0
2017-09-20T01:45:25.492Z,0
2017-09-20T01:46:34.033Z,0
2017-09-20T01:47:43.217Z,0
2017-09-20T01:48:52.080Z,0
2017-09-20T01:50:00.944Z,0
2017-09-20T01:51:09.809Z,0
2017-09-20T01:52:18.350Z,0
2017-09-20T01:53:27.212Z,0
2017-09-20T01:54:36.077Z,0
2017-09-20T01:55:44.618Z,0
2017-09-20T01:56:53.478Z,0
2017-09-20T01:58:02.669Z,0
2017-09-20T01:59:11.536Z,0
2017-09-20T02:00:20.084Z,0
2017-09-20T02:01:29.271Z,0
2017-09-20T02:02:38.139Z,0
2017-09-20T02:03:46.681Z,0
2017-09-20T02:04:55.225Z,0
2017-09-20T02:06:04.090Z,0
2017-09-20T02:07:13.287Z,0
2017-09-20T02:08:22.146Z,0
2017-09-20T02:09:31.011Z,0
2017-09-20T02:10:39.552Z,0
2017-09-20T02:11:48.411Z,0
2017-09-20T02:12:57.598Z,0
2017-09-20T02:14:06.466Z,0
2017-09-20T02:15:15.011Z,0
2017-09-20T02:16:23.551Z,0
2017-09-20T02:17:32.093Z,0
2017-09-20T02:18:40.958Z,0
2017-09-20T02:19:49.819Z,0
2017-09-20T02:20:58.360Z,0
2017-09-20T02:22:06.903Z,0
2017-09-20T02:23:15.443Z,0
2017-09-20T02:24:24.305Z,0
2017-09-20T02:25:32.846Z,0
2017-09-20T02:26:41.714Z,0
2017-09-20T02:27:50.257Z,0
2017-09-20T02:28:59.124Z,0
2017-09-20T02:30:07.666Z,0
2017-09-20T02:31:16.853Z,0
2017-09-20T02:32:25.390Z,0
2017-09-20T02:33:33.930Z,0
2017-09-20T02:34:42.472Z,0
2017-09-20T02:35:51.662Z,0
2017-09-20T02:37:00.203Z,0
2017-09-20T02:38:09.066Z,0
2017-09-20T02:39:17.609Z,0
2017-09-20T02:40:26.794Z,0
2017-09-20T02:41:35.980Z,0
2017-09-20T02:42:44.518Z,0
2017-09-20T02:43:53.059Z,0
2017-09-20T02:45:01.923Z,0
2017-09-20T02:46:10.789Z,0
2017-09-20T02:47:19.325Z,0
2017-09-20T02:48:27.866Z,0
2017-09-20T02:49:36.408Z,0
2017-09-20T02:50:45.269Z,0
2017-09-20T02:51:54.133Z,0
2017-09-20T02:53:03.323Z,0
2017-09-20T02:54:12.488Z,0
2017-09-20T02:55:21.674Z,0
2017-09-20T02:56:30.538Z,0
2017-09-20T02:57:39.079Z,0
2017-09-20T02:58:47.944Z,0
2017-09-20T02:59:56.481Z,0
2017-09-20T03:01:05.021Z,0
2017-09-20T03:02:14.529Z,0
2017-09-20T03:03:23.068Z,0
2017-09-20T03:04:31.610Z,0
2017-09-20T03:05:40.146Z,0
2017-09-20T03:06:48.687Z,0
2017-09-20T03:07:57.227Z,0
2017-09-20T03:09:06.743Z,0
2017-09-20T03:10:15.926Z,0
2017-09-20T03:11:24.468Z,0
2017-09-20T03:12:33.331Z,0
2017-09-20T03:13:42.193Z,0
2017-09-20T03:14:50.735Z,0
2017-09-20T03:16:00.243Z,0
2017-09-20T03:17:09.429Z,0
2017-09-20T03:18:18.297Z,0
2017-09-20T03:19:27.161Z,0
2017-09-20T03:20:35.699Z,0
2017-09-20T03:21:44.241Z,0
2017-09-20T03:22:53.106Z,0
2017-09-20T03:24:02.074Z,0
2017-09-20T03:25:10.940Z,0
2017-09-20T03:26:19.486Z,0
2017-09-20T03:27:28.667Z,0
2017-09-20T03:28:37.210Z,0
2017-09-20T03:29:45.752Z,0
2017-09-20T03:30:54.623Z,0
2017-09-20T03:32:03.814Z,0
2017-09-20T03:33:12.355Z,0
2017-09-20T03:34:20.895Z,0
2017-09-20T03:35:29.758Z,0
2017-09-20T03:36:38.301Z,0
2017-09-20T03:37:47.488Z,0
2017-09-20T03:38:56.027Z,0
2017-09-20T03:40:04.577Z,0
2017-09-20T03:41:13.117Z,0
2017-09-20T03:42:22.309Z,0
2017-09-20T03:43:30.847Z,0
2017-09-20T03:44:39.388Z,0
2017-09-20T03:45:48.252Z,0
2017-09-20T03:46:56.793Z,0
2017-09-20T03:48:05.660Z,0
2017-09-20T03:49:14.522Z,0
2017-09-20T03:50:23.062Z,0
2017-09-20T03:51:32.622Z,0
2017-09-20T03:52:41.483Z,0
2017-09-20T03:53:50.347Z,0
2017-09-20T03:54:58.886Z,0
2017-09-20T03:56:07.428Z,0
2017-09-20T03:57:15.971Z,0
2017-09-20T03:58:25.151Z,0
2017-09-20T03:59:34.016Z,0
2017-09-20T04:00:42.883Z,0
2017-09-20T04:01:51.425Z,0
2017-09-20T04:03:00.288Z,0
2017-09-20T04:04:09.154Z,0
2017-09-20T04:05:17.696Z,0
2017-09-20T04:06:26.563Z,0
2017-09-20T04:07:35.750Z,0
2017-09-20T04:08:44.289Z,0
2017-09-20T04:09:52.834Z,0
2017-09-20T04:11:01.373Z,0
2017-09-20T04:12:09.914Z,0
2017-09-20T04:13:18.780Z,0
2017-09-20T04:14:27.644Z,0
2017-09-20T04:15:36.505Z,0
2017-09-20T04:16:45.045Z,0
2017-09-20T04:17:53.587Z,0
2017-09-20T04:19:02.126Z,0
2017-09-20T04:20:11.032Z,0
2017-09-20T04:21:19.574Z,0
2017-09-20T04:22:28.114Z,0
2017-09-20T04:23:36.657Z,0
2017-09-20T04:24:45.201Z,0
2017-09-20T04:25:53.740Z,0
2017-09-20T04:27:02.607Z,0
2017-09-20T04:28:11.480Z,0
2017-09-20T04:29:20.020Z,0
2017-09-20T04:30:29.207Z,0
2017-09-20T04:31:38.072Z,0
2017-09-20T04:32:46.938Z,0
2017-09-20T04:33:55.812Z,0
2017-09-20T04:35:04.356Z,0
2017-09-20T04:36:13.545Z,0
2017-09-20T04:37:22.083Z,0
2017-09-20T04:38:30.945Z,0
2017-09-20T04:39:40.132Z,0
2017-09-20T04:40:48.999Z,0
2017-09-20T04:41:57.539Z,0
2017-09-20T04:43:06.404Z,0
2017-09-20T04:44:15.268Z,0
2017-09-20T04:45:24.134Z,0
2017-09-20T04:46:32.679Z,0
2017-09-20T04:47:41.542Z,0
2017-09-20T04:48:50.080Z,0
2017-09-20T04:49:58.945Z,0
2017-09-20T04:51:07.487Z,0
2017-09-20T04:52:17.006Z,0
2017-09-20T04:53:25.870Z,4
2017-09-20T04:54:34.729Z,4
2017-09-20T04:55:43.595Z,0
2017-09-20T04:56:52.141Z,4
2017-09-20T04:58:01.012Z,4
2017-09-20T04:59:09.554Z,4
2017-09-20T05:00:18.095Z,4
2017-09-20T05:01:26.634Z,8
2017-09-20T05:02:35.498Z,8
2017-09-20T05:03:44.693Z,8
2017-09-20T05:04:53.238Z,12
2017-09-20T05:06:02.430Z,12
2017-09-20T05:07:10.972Z,20
2017-09-20T05:08:19.509Z,20
2017-09-20T05:09:30.003Z,32
2017-09-20T05:10:38.916Z,36
2017-09-20T05:11:47.780Z,40
2017-09-20T05:12:56.657Z,44
2017-09-20T05:14:05.199Z,52
2017-09-20T05:15:14.073Z,52
2017-09-20T05:16:22.616Z,56
2017-09-20T05:17:31.482Z,68
2017-09-20T05:18:40.023Z,80
2017-09-20T05:19:49.217Z,92
2017-09-20T05:20:57.757Z,100
2017-09-20T05:22:06.622Z,108
2017-09-20T05:23:15.807Z,116
2017-09-20T05:24:24.350Z,132
2017-09-20T05:25:33.861Z,144
2017-09-20T05:26:42.725Z,152
2017-09-20T05:27:51.589Z,164
2017-09-20T05:29:00.133Z,180
2017-09-20T05:30:08.997Z,200
2017-09-20T05:31:18.503Z,228
2017-09-20T05:32:27.367Z,244
2017-09-20T05:33:35.909Z,260
2017-09-20T05:34:44.450Z,288
2017-09-20T05:35:52.993Z,312
2017-09-20T05:37:01.858Z,324
2017-09-20T05:38:10.721Z,324
2017-09-20T05:39:19.585Z,316
2017-09-20T05:40:28.479Z,324
2017-09-20T05:41:37.346Z,376
2017-09-20T05:42:46.204Z,428
2017-09-20T05:43:55.066Z,464
2017-09-20T05:45:03.604Z,500
2017-09-20T05:46:12.148Z,580
2017-09-20T05:47:21.335Z,656
2017-09-20T05:48:30.202Z,736
2017-09-20T05:49:39.388Z,792
2017-09-20T05:50:48.250Z,844
2017-09-20T05:51:57.448Z,936
2017-09-20T05:53:06.311Z,980
2017-09-20T05:54:15.180Z,1004
2017-09-20T05:55:24.042Z,1000
2017-09-20T05:56:32.907Z,996
2017-09-20T05:57:41.451Z,1020
2017-09-20T05:58:49.994Z,1088
2017-09-20T05:59:59.182Z,1132
2017-09-20T06:01:08.368Z,1152
2017-09-20T06:02:17.237Z,1204
2017-09-20T06:03:25.780Z,1304
2017-09-20T06:04:34.646Z,1364
2017-09-20T06:05:43.516Z,1440
2017-09-20T06:06:52.381Z,1588
2017-09-20T06:08:01.244Z,1636
2017-09-20T06:09:09.786Z,1712
2017-09-20T06:10:18.324Z,1852
2017-09-20T06:11:27.516Z,1968
2017-09-20T06:12:36.702Z,1980
2017-09-20T06:13:45.245Z,1988
2017-09-20T06:14:54.111Z,2092
2017-09-20T06:16:02.650Z,2208
2017-09-20T06:17:11.190Z,2284
2017-09-20T06:18:19.734Z,2348
2017-09-20T06:19:28.598Z,2348
2017-09-20T06:20:37.465Z,2332
2017-09-20T06:21:46.329Z,2392
2017-09-20T06:22:55.519Z,2476
2017-09-20T06:24:04.710Z,2476
2017-09-20T06:25:13.900Z,2632
2017-09-20T06:26:22.765Z,2992
2017-09-20T06:27:31.305Z,2868
2017-09-20T06:28:40.047Z,2736
2017-09-20T06:29:48.589Z,2744
2017-09-20T06:30:57.133Z,2908
2017-09-20T06:32:05.998Z,3072
2017-09-20T06:33:14.864Z,3160
2017-09-20T06:34:23.405Z,3224
2017-09-20T06:35:32.147Z,3268
2017-09-20T06:36:41.014Z,3348
2017-09-20T06:37:49.566Z,3380
2017-09-20T06:38:58.106Z,3472
2017-09-20T06:40:07.291Z,3488
2017-09-20T06:41:16.152Z,3612
2017-09-20T06:42:24.697Z,4152
2017-09-20T06:43:33.239Z,3652
2017-09-20T06:44:42.426Z,3420
2017-09-20T06:45:50.969Z,3476
2017-09-20T06:47:00.185Z,3620
2017-09-20T06:48:09.050Z,3924
2017-09-20T06:49:17.595Z,4104
2017-09-20T06:50:26.140Z,4144
2017-09-20T06:51:34.681Z,3940
2017-09-20T06:52:43.872Z,3836
2017-09-20T06:53:53.184Z,3780
2017-09-20T06:55:01.724Z,3840
2017-09-20T06:56:10.913Z,4076
2017-09-20T06:57:19.476Z,4068
2017-09-20T06:58:28.339Z,4356
2017-09-20T06:59:36.882Z,4344
2017-09-20T07:00:45.751Z,4088
2017-09-20T07:01:54.295Z,4028
2017-09-20T07:03:03.162Z,3592
2017-09-20T07:04:12.354Z,3736
2017-09-20T07:05:20.898Z,3808
2017-09-20T07:06:29.447Z,4024
2017-09-20T07:07:38.310Z,3872
2017-09-20T07:08:46.851Z,4208
2017-09-20T07:09:55.393Z,4076
2017-09-20T07:11:03.967Z,2860
2017-09-20T07:12:12.520Z,3584
2017-09-20T07:13:21.384Z,4436
2017-09-20T07:14:30.575Z,3576
2017-09-20T07:15:39.767Z,3368
2017-09-20T07:16:48.635Z,3868
2017-09-20T07:17:57.175Z,4172
2017-09-20T07:19:06.041Z,4932
2017-09-20T07:20:14.905Z,5440
2017-09-20T07:21:24.237Z,5356
2017-09-20T07:22:33.854Z,5340
2017-09-20T07:23:43.053Z,5688
2017-09-20T07:24:52.244Z,5840
2017-09-20T07:26:01.112Z,7040
2017-09-20T07:27:10.105Z,6192
2017-09-20T07:28:18.972Z,6004
2017-09-20T07:29:27.523Z,6084
2017-09-20T07:30:36.071Z,6212
2017-09-20T07:31:44.940Z,5880
2017-09-20T07:32:53.512Z,5800
2017-09-20T07:34:02.390Z,5792
2017-09-20T07:35:11.256Z,6260
2017-09-20T07:36:19.802Z,5972
2017-09-20T07:37:28.346Z,6060
2017-09-20T07:38:37.359Z,6752
2017-09-20T07:39:46.229Z,6716
2017-09-20T07:40:54.781Z,6956
2017-09-20T07:42:03.651Z,6084
2017-09-20T07:43:12.517Z,6476
2017-09-20T07:44:21.382Z,7528
2017-09-20T07:45:30.178Z,6860
2017-09-20T07:46:39.098Z,6704
2017-09-20T07:47:47.642Z,6740
2017-09-20T07:48:56.185Z,6824
2017-09-20T07:50:04.773Z,6136
2017-09-20T07:51:14.020Z,6608
2017-09-20T07:52:23.209Z,6804
2017-09-20T07:53:31.752Z,6996
2017-09-20T07:54:40.618Z,8368
2017-09-20T07:55:49.986Z,8560
2017-09-20T07:56:59.178Z,8300
2017-09-20T07:58:08.050Z,8336
2017-09-20T07:59:16.914Z,7692
2017-09-20T08:00:25.785Z,7712
2017-09-20T08:01:34.652Z,7904
2017-09-20T08:02:43.196Z,8364
2017-09-20T08:03:52.064Z,7720
2017-09-20T08:05:00.932Z,7596
2017-09-20T08:06:09.481Z,7792
2017-09-20T08:07:18.356Z,7492
2017-09-20T08:08:27.224Z,7480
2017-09-20T08:09:36.092Z,7192
2017-09-20T08:10:44.839Z,6408
2017-09-20T08:11:53.715Z,6392
2017-09-20T08:13:02.584Z,6484
2017-09-20T08:14:11.779Z,6432
2017-09-20T08:15:20.327Z,6632
2017-09-20T08:16:29.196Z,6760
2017-09-20T08:17:38.065Z,6764
2017-09-20T08:18:46.933Z,6720
2017-09-20T08:19:55.801Z,6660
2017-09-20T08:21:04.346Z,6948
2017-09-20T08:22:13.219Z,7072
2017-09-20T08:23:22.094Z,7224
2017-09-20T08:24:31.009Z,7364
2017-09-20T08:25:39.887Z,7516
2017-09-20T08:26:48.651Z,7660
2017-09-20T08:27:58.079Z,7880
2017-09-20T08:29:06.957Z,8132
2017-09-20T08:30:15.506Z,8276
2017-09-20T08:31:25.015Z,8188
2017-09-20T08:32:34.209Z,8088
2017-09-20T08:33:42.754Z,8208
2017-09-20T08:34:51.298Z,7740
2017-09-20T08:36:00.239Z,7412
2017-09-20T08:37:09.202Z,7008
2017-09-20T08:38:17.747Z,6832
2017-09-20T08:39:26.616Z,6676
2017-09-20T08:40:35.483Z,6560
2017-09-20T08:41:44.354Z,6632
2017-09-20T08:42:53.225Z,6448
2017-09-20T08:44:02.091Z,5996
2017-09-20T08:45:10.967Z,5556
2017-09-20T08:46:19.526Z,5140
2017-09-20T08:47:28.069Z,4812
2017-09-20T08:48:37.015Z,4596
2017-09-20T08:49:45.892Z,4436
2017-09-20T08:50:54.853Z,4252
2017-09-20T08:52:03.727Z,4192
2017-09-20T08:53:12.610Z,4232
2017-09-20T08:54:21.480Z,4408
2017-09-20T08:55:30.510Z,4456
2017-09-20T08:56:39.701Z,4496
2017-09-20T08:57:48.248Z,4512
2017-09-20T08:58:56.821Z,4688
2017-09-20T09:00:05.424Z,4728
2017-09-20T09:01:14.621Z,4556
2017-09-20T09:02:23.813Z,4444
2017-09-20T09:03:32.357Z,4528
2017-09-20T09:04:41.223Z,4496
2017-09-20T09:05:50.099Z,4432
2017-09-20T09:06:58.969Z,4612
2017-09-20T09:08:07.837Z,5412
2017-09-20T09:09:16.480Z,6424
2017-09-20T09:10:25.024Z,7644
2017-09-20T09:11:33.565Z,8548
2017-09-20T09:12:42.107Z,8736
2017-09-20T09:13:51.301Z,8908
2017-09-20T09:14:59.846Z,8752
2017-09-20T09:16:08.393Z,8152
2017-09-20T09:17:17.265Z,8212
2017-09-20T09:18:26.134Z,8272
2017-09-20T09:19:35.324Z,8412
2017-09-20T09:20:43.872Z,8104
2017-09-20T09:21:52.744Z,7696
2017-09-20T09:23:02.260Z,7308
2017-09-20T09:24:10.805Z,6968
2017-09-20T09:25:19.350Z,6428
2017-09-20T09:26:28.220Z,5904
2017-09-20T09:27:37.084Z,5012
2017-09-20T09:28:45.629Z,4496
2017-09-20T09:29:54.187Z,4156
2017-09-20T09:31:03.385Z,3848
2017-09-20T09:32:12.585Z,3692
2017-09-20T09:33:21.450Z,3828
2017-09-20T09:34:30.246Z,3844
2017-09-20T09:35:39.805Z,4084
2017-09-20T09:36:48.505Z,3556
2017-09-20T09:37:57.380Z,3540
2017-09-20T09:39:06.250Z,3692
2017-09-20T09:40:15.118Z,4112
2017-09-20T09:41:23.667Z,3820
2017-09-20T09:42:32.530Z,4352
2017-09-20T09:43:41.076Z,4128
2017-09-20T09:44:50.268Z,4520
2017-09-20T09:45:59.466Z,4340
2017-09-20T09:47:08.514Z,4212
2017-09-20T09:48:17.061Z,4608
2017-09-20T09:49:25.608Z,4864
2017-09-20T09:50:34.153Z,4612
2017-09-20T09:51:43.020Z,4544
2017-09-20T09:52:51.886Z,4668
2017-09-20T09:54:00.753Z,5152
2017-09-20T09:55:09.297Z,5660
2017-09-20T09:56:17.845Z,6092
2017-09-20T09:57:27.032Z,6536
2017-09-20T09:58:35.901Z,6872
2017-09-20T09:59:44.449Z,7876
2017-09-20T10:00:53.637Z,7756
2017-09-20T10:02:02.505Z,7332
2017-09-20T10:03:11.694Z,6796
2017-09-20T10:04:20.236Z,7284
2017-09-20T10:05:28.780Z,7416
2017-09-20T10:06:37.326Z,7400
2017-09-20T10:07:46.198Z,7744
2017-09-20T10:08:55.067Z,6948
2017-09-20T10:10:03.616Z,7160
2017-09-20T10:11:12.485Z,7144
2017-09-20T10:12:21.033Z,7352
2017-09-20T10:13:29.903Z,7284
2017-09-20T10:14:38.773Z,7232
2017-09-20T10:15:47.963Z,7424
2017-09-20T10:16:57.157Z,7564
2017-09-20T10:18:06.033Z,7532
2017-09-20T10:19:15.231Z,7640
2017-09-20T10:20:24.425Z,8200
2017-09-20T10:21:33.617Z,9236
2017-09-20T10:22:42.165Z,10376
2017-09-20T10:23:51.680Z,11304
2017-09-20T10:25:00.228Z,11572
2017-09-20T10:26:09.104Z,11456
2017-09-20T10:27:17.972Z,11092
2017-09-20T10:28:26.516Z,11036
2017-09-20T10:29:35.063Z,11000
2017-09-20T10:30:43.610Z,11092
2017-09-20T10:31:52.160Z,10980
2017-09-20T10:33:00.711Z,11108
2017-09-20T10:34:09.582Z,11140
2017-09-20T10:35:18.452Z,10948
2017-09-20T10:36:27.321Z,10700
2017-09-20T10:37:36.196Z,10596
2017-09-20T10:38:45.390Z,10760
2017-09-20T10:39:54.264Z,10648
2017-09-20T10:41:02.810Z,10564
2017-09-20T10:42:11.700Z,10728
2017-09-20T10:43:21.219Z,10744
2017-09-20T10:44:30.411Z,10168
2017-09-20T10:45:38.959Z,9780
2017-09-20T10:46:47.508Z,9792
2017-09-20T10:47:56.379Z,10940
2017-09-20T10:49:05.250Z,11720
2017-09-20T10:50:14.121Z,11536
2017-09-20T10:51:23.007Z,11488
2017-09-20T10:52:31.886Z,11232
2017-09-20T10:53:40.433Z,11800
2017-09-20T10:54:49.630Z,12732
2017-09-20T10:55:59.143Z,13176
2017-09-20T10:57:07.694Z,12704
2017-09-20T10:58:16.563Z,12232
2017-09-20T10:59:25.756Z,12076
2017-09-20T11:00:34.305Z,11436
2017-09-20T11:01:43.179Z,10784
2017-09-20T11:02:51.728Z,9900
2017-09-20T11:04:00.278Z,10476
2017-09-20T11:05:09.145Z,12004
2017-09-20T11:06:18.338Z,12808
2017-09-20T11:07:26.883Z,12592
2017-09-20T11:08:35.765Z,11776
2017-09-20T11:09:44.321Z,11180
2017-09-20T11:10:52.864Z,10620
2017-09-20T11:12:01.411Z,10364
2017-09-20T11:13:09.969Z,10028
2017-09-20T11:14:18.836Z,9772
2017-09-20T11:15:27.710Z,9604
2017-09-20T11:16:36.259Z,9464
2017-09-20T11:17:45.133Z,9244
2017-09-20T11:18:53.682Z,9160
2017-09-20T11:20:02.611Z,9276
2017-09-20T11:21:11.159Z,9324
2017-09-20T11:22:20.042Z,9852
2017-09-20T11:23:28.591Z,9816
2017-09-20T11:24:37.460Z,9532
2017-09-20T11:25:46.003Z,9220
2017-09-20T11:26:54.871Z,9004
2017-09-20T11:28:03.416Z,8996
2017-09-20T11:29:11.963Z,8716
2017-09-20T11:30:20.842Z,8268
2017-09-20T11:31:29.715Z,7992
2017-09-20T11:32:38.261Z,7588
2017-09-20T11:33:46.805Z,7404
2017-09-20T11:34:55.674Z,7264
2017-09-20T11:36:04.866Z,7604
2017-09-20T11:37:13.740Z,8416
2017-09-20T11:38:22.289Z,9092
2017-09-20T11:39:30.836Z,9344
2017-09-20T11:40:39.703Z,8844
2017-09-20T11:41:48.250Z,8640
2017-09-20T11:42:57.447Z,7336
2017-09-20T11:44:06.318Z,6948
2017-09-20T11:45:15.188Z,7152
2017-09-20T11:46:23.734Z,7532
2017-09-20T11:47:32.282Z,7356
2017-09-20T11:48:41.150Z,7816
2017-09-20T11:49:49.701Z,7892
2017-09-20T11:50:59.219Z,8100
2017-09-20T11:52:08.091Z,8288
2017-09-20T11:53:16.960Z,8396
2017-09-20T11:54:25.833Z,8500
2017-09-20T11:55:34.710Z,9104
2017-09-20T11:56:43.258Z,9416
2017-09-20T11:57:52.131Z,9844
2017-09-20T11:59:00.679Z,10040
2017-09-20T12:00:09.867Z,10240
2017-09-20T12:01:18.413Z,10264
2017-09-20T12:02:26.960Z,10296
2017-09-20T12:03:35.507Z,9716
2017-09-20T12:04:44.056Z,9244
2017-09-20T12:05:52.932Z,8484
2017-09-20T12:07:01.803Z,7644
2017-09-20T12:08:10.353Z,6916
2017-09-20T12:09:19.225Z,6472
2017-09-20T12:10:28.135Z,5748
2017-09-20T12:11:36.682Z,5608
2017-09-20T12:12:45.555Z,5404
2017-09-20T12:13:54.106Z,5420
2017-09-20T12:15:02.655Z,5600
2017-09-20T12:16:11.204Z,5636
2017-09-20T12:17:19.750Z,5568
2017-09-20T12:18:28.299Z,5520
2017-09-20T12:19:37.166Z,5416
2017-09-20T12:20:45.713Z,5700
2017-09-20T12:21:54.594Z,6048
2017-09-20T12:23:03.142Z,6120
2017-09-20T12:24:12.338Z,6544
2017-09-20T12:25:20.884Z,7188
2017-09-20T12:26:29.757Z,7364
2017-09-20T12:27:38.305Z,7180
2017-09-20T12:28:46.854Z,6992
2017-09-20T12:29:55.734Z,6904
2017-09-20T12:31:04.282Z,6928
2017-09-20T12:32:13.476Z,6832
2017-09-20T12:33:22.675Z,6752
2017-09-20T12:34:31.546Z,6780
2017-09-20T12:35:40.094Z,6864
2017-09-20T12:36:48.643Z,6784
2017-09-20T12:37:57.832Z,6760
2017-09-20T12:39:06.378Z,6808
2017-09-20T12:40:15.249Z,6792
2017-09-20T12:41:24.128Z,6740
2017-09-20T12:42:33.323Z,6464
2017-09-20T12:43:41.880Z,6136
2017-09-20T12:44:51.072Z,5736
2017-09-20T12:45:59.621Z,5212
2017-09-20T12:47:08.223Z,4700
2017-09-20T12:48:17.097Z,4356
2017-09-20T12:49:25.969Z,4060
2017-09-20T12:50:34.841Z,3836
2017-09-20T12:51:43.391Z,3720
2017-09-20T12:52:52.265Z,3684
2017-09-20T12:54:01.010Z,3712
2017-09-20T12:55:09.559Z,3632
2017-09-20T12:56:18.759Z,3436
2017-09-20T12:57:27.963Z,3216
2017-09-20T12:58:36.814Z,3068
2017-09-20T12:59:45.359Z,3148
2017-09-20T13:00:54.238Z,3292
2017-09-20T13:02:03.141Z,3480
2017-09-20T13:03:12.333Z,3700
2017-09-20T13:04:21.203Z,3936
2017-09-20T13:05:29.750Z,4112
2017-09-20T13:06:38.622Z,4348
2017-09-20T13:07:47.815Z,4844
2017-09-20T13:08:57.035Z,5468
2017-09-20T13:10:05.583Z,5980
2017-09-20T13:11:14.469Z,6328
2017-09-20T13:12:23.987Z,6160
2017-09-20T13:13:33.180Z,6044
2017-09-20T13:14:41.731Z,6092
2017-09-20T13:15:50.597Z,6260
2017-09-20T13:16:59.464Z,6412
2017-09-20T13:18:08.343Z,6580
2017-09-20T13:19:16.892Z,6652
2017-09-20T13:20:26.084Z,6712
2017-09-20T13:21:35.601Z,6856
2017-09-20T13:22:44.148Z,7096
2017-09-20T13:23:53.369Z,7244
2017-09-20T13:25:01.920Z,7272
2017-09-20T13:26:10.470Z,7128
2017-09-20T13:27:19.015Z,6916
2017-09-20T13:28:27.891Z,6680
2017-09-20T13:29:36.767Z,6564
2017-09-20T13:30:45.318Z,6492
2017-09-20T13:31:54.832Z,6452
2017-09-20T13:33:03.381Z,6440
2017-09-20T13:34:11.929Z,6404
2017-09-20T13:35:20.799Z,6384
2017-09-20T13:36:29.350Z,6368
2017-09-20T13:37:38.220Z,6472
2017-09-20T13:38:46.765Z,6800
2017-09-20T13:39:55.660Z,7344
2017-09-20T13:41:04.590Z,7848
2017-09-20T13:42:13.157Z,8064
2017-09-20T13:43:22.673Z,7256
2017-09-20T13:44:31.550Z,6824
2017-09-20T13:47:21.365Z,7576
2017-09-20T13:48:30.568Z,8044
2017-09-20T13:49:39.118Z,8032
2017-09-20T13:50:48.354Z,7324
2017-09-20T13:51:57.228Z,6988
2017-09-20T13:53:05.774Z,7804
2017-09-20T13:54:14.321Z,8092
2017-09-20T13:55:23.194Z,7972
2017-09-20T13:56:31.744Z,8216
2017-09-20T13:57:40.943Z,8180
2017-09-20T13:58:49.817Z,8236
2017-09-20T13:59:58.369Z,8420
2017-09-20T14:01:06.918Z,8484
2017-09-20T14:02:15.824Z,8332
2017-09-20T14:03:24.372Z,8512
2017-09-20T14:04:33.250Z,8556
2017-09-20T14:05:41.794Z,8332
2017-09-20T14:06:50.345Z,8808
2017-09-20T14:07:59.342Z,8724
2017-09-20T14:09:07.890Z,8528
2017-09-20T14:10:16.438Z,8272
2017-09-20T14:11:25.638Z,8016
2017-09-20T14:12:34.185Z,7812
2017-09-20T14:13:42.732Z,7620
2017-09-20T14:14:51.279Z,7724
2017-09-20T14:16:00.552Z,7452
2017-09-20T14:17:09.420Z,7164
2017-09-20T14:18:17.969Z,7184
2017-09-20T14:19:27.142Z,7068
2017-09-20T14:20:36.011Z,6764
2017-09-20T14:21:44.882Z,6448
2017-09-20T14:22:53.753Z,6456
2017-09-20T14:24:02.612Z,6388
2017-09-20T14:25:11.911Z,5896
2017-09-20T14:26:20.464Z,5324
2017-09-20T14:27:29.014Z,4736
2017-09-20T14:28:37.883Z,4232
2017-09-20T14:29:46.433Z,4320
2017-09-20T14:30:54.984Z,3852
2017-09-20T14:32:04.513Z,3816
2017-09-20T14:33:13.381Z,3952
2017-09-20T14:34:21.928Z,4044
2017-09-20T14:35:30.479Z,3964
2017-09-20T14:36:39.351Z,3948
2017-09-20T14:37:47.898Z,3932
2017-09-20T14:38:56.448Z,3660
2017-09-20T14:40:04.998Z,3528
2017-09-20T14:41:13.877Z,3572
2017-09-20T14:42:22.429Z,3612
2017-09-20T14:43:31.629Z,3304
2017-09-20T14:44:40.818Z,3448
2017-09-20T14:45:49.686Z,3684
2017-09-20T14:46:58.554Z,3852
2017-09-20T14:48:07.101Z,3788
2017-09-20T14:49:15.670Z,3724
2017-09-20T14:50:24.199Z,3636
2017-09-20T14:51:33.072Z,3644
2017-09-20T14:52:41.618Z,3732
2017-09-20T14:53:50.166Z,3920
2017-09-20T14:54:58.711Z,4128
2017-09-20T14:56:07.579Z,4240
2017-09-20T14:57:16.451Z,4428
2017-09-20T14:58:25.324Z,4068
2017-09-20T14:59:34.236Z,4084
2017-09-20T15:00:43.115Z,3948
2017-09-20T15:01:51.989Z,3892
2017-09-20T15:03:00.862Z,3904
2017-09-20T15:04:09.412Z,3856
2017-09-20T15:05:18.634Z,3820
2017-09-20T15:06:27.183Z,3840
2017-09-20T15:07:36.050Z,3828
2017-09-20T15:08:44.922Z,3828
2017-09-20T15:09:53.477Z,3860
2017-09-20T15:11:02.017Z,3848
2017-09-20T15:12:11.209Z,3808
2017-09-20T15:13:19.754Z,3836
2017-09-20T15:14:28.307Z,3852
2017-09-20T15:15:37.177Z,3836
2017-09-20T15:16:46.140Z,3760
2017-09-20T15:17:54.686Z,3684
2017-09-20T15:19:03.879Z,3664
2017-09-20T15:20:12.750Z,3608
2017-09-20T15:21:21.619Z,3436
2017-09-20T15:22:30.168Z,3252
2017-09-20T15:23:38.714Z,3000
2017-09-20T15:24:47.257Z,2960
2017-09-20T15:25:56.450Z,2912
2017-09-20T15:27:04.995Z,2828
2017-09-20T15:28:13.867Z,2768
2017-09-20T15:29:22.414Z,2720
2017-09-20T15:30:30.965Z,2936
2017-09-20T15:31:40.166Z,2736
2017-09-20T15:32:48.715Z,2700
2017-09-20T15:33:57.588Z,2692
2017-09-20T15:35:06.457Z,2656
2017-09-20T15:36:15.327Z,2776
2017-09-20T15:37:24.565Z,2908
2017-09-20T15:38:33.442Z,2896
2017-09-20T15:39:41.985Z,2912
2017-09-20T15:40:50.579Z,2948
2017-09-20T15:41:59.441Z,3008
2017-09-20T15:43:07.987Z,3080
2017-09-20T15:44:16.532Z,3160
2017-09-20T15:45:26.307Z,3236
2017-09-20T15:46:35.290Z,3272
2017-09-20T15:47:43.834Z,3288
2017-09-20T15:48:52.702Z,3352